Time;durP1;ratioP1;P1;durP2;ratioP2;P2;SDS_P1;SDS_P2;PMS_P1;PMS_P2;Temp;Humidity;BMP_temperature;BMP_pressure;BME280_temperature;BME280_humidity;BME280_pressure;Samples;Min_cycle;Max_cycle;Signal;HPM_P1;HPM_P2
2023/03/25 00:01:57;;;;;;;0.00;0.00;;;9.70;96.60;;;;;;5025091;28;20049;-87
2023/03/25 00:04:25;;;;;;;0.00;0.00;;;9.70;96.80;;;;;;5057054;28;20045;-87
2023/03/25 00:06:54;;;;;;;0.10;0.10;;;9.70;97.20;;;;;;5024394;28;20055;-87
2023/03/25 00:09:21;;;;;;;0.00;0.00;;;9.70;97.00;;;;;;5040054;28;20044;-87
2023/03/25 00:11:49;;;;;;;0.28;0.20;;;9.70;97.00;;;;;;5056468;28;20120;-87
2023/03/25 00:14:16;;;;;;;0.10;0.10;;;9.70;97.10;;;;;;5056195;28;20056;-87
2023/03/25 00:16:47;;;;;;;0.10;0.00;;;9.60;96.90;;;;;;5039584;28;20056;-87
2023/03/25 00:19:14;;;;;;;0.80;0.30;;;9.70;96.80;;;;;;5039968;28;20215;-87
2023/03/25 00:21:43;;;;;;;0.05;0.00;;;9.60;96.90;;;;;;5023967;28;20044;-87
2023/03/25 00:24:11;;;;;;;1.75;0.05;;;9.60;97.00;;;;;;5040213;28;20049;-87
2023/03/25 00:26:41;;;;;;;0.00;0.00;;;9.60;97.10;;;;;;5055356;28;20084;-87
2023/03/25 00:29:08;;;;;;;0.00;0.00;;;9.70;97.50;;;;;;5056558;28;20056;-87
2023/03/25 00:31:34;;;;;;;0.10;0.00;;;9.60;97.50;;;;;;5057257;28;20091;-87
2023/03/25 00:34:00;;;;;;;0.10;0.10;;;9.60;97.20;;;;;;5023249;28;20049;-87
2023/03/25 00:36:26;;;;;;;0.00;0.00;;;9.60;97.40;;;;;;5055728;28;20040;-87
2023/03/25 00:38:52;;;;;;;0.20;0.20;;;9.60;97.50;;;;;;5022943;28;20143;-86
2023/03/25 00:41:26;;;;;;;1.55;0.38;;;9.60;97.30;;;;;;5054907;28;20073;-87
2023/03/25 00:43:54;;;;;;;3.10;0.90;;;9.60;97.70;;;;;;5039650;28;20049;-87
2023/03/25 00:46:22;;;;;;;0.00;0.00;;;9.60;97.80;;;;;;5055491;28;20107;-87
2023/03/25 00:48:49;;;;;;;0.00;0.00;;;9.60;98.00;;;;;;5039509;28;20049;-87
2023/03/25 00:51:18;;;;;;;0.00;0.00;;;9.60;98.40;;;;;;5056218;28;20084;-88
2023/03/25 00:53:46;;;;;;;0.00;0.00;;;9.60;98.70;;;;;;5039004;28;20049;-87
2023/03/25 00:56:14;;;;;;;0.00;0.00;;;9.60;98.90;;;;;;5039373;28;20084;-87
2023/03/25 00:58:40;;;;;;;0.10;0.10;;;9.50;98.50;;;;;;5023151;28;20059;-87
2023/03/25 01:01:15;;;;;;;0.00;0.00;;;9.50;98.70;;;;;;5006424;28;20049;-87
2023/03/25 01:03:42;;;;;;;;;;;9.50;98.60;;;;;;5040030;28;20057;-87
2023/03/25 01:06:20;;;;;;;0.10;0.08;;;9.50;98.50;;;;;;5039462;28;20268;-87
2023/03/25 01:08:46;;;;;;;0.00;0.00;;;9.50;98.20;;;;;;5039107;28;20487;-87
2023/03/25 01:11:20;;;;;;;0.17;0.15;;;9.50;98.30;;;;;;5005984;28;20045;-87
2023/03/25 01:13:46;;;;;;;0.00;0.00;;;9.50;98.30;;;;;;5038804;28;20067;-87
2023/03/25 01:16:12;;;;;;;0.35;0.30;;;9.50;98.40;;;;;;5039518;28;20057;-87
2023/03/25 01:18:38;;;;;;;0.00;0.00;;;9.50;98.30;;;;;;5038813;28;20049;-87
2023/03/25 01:21:05;;;;;;;0.00;0.00;;;9.50;98.50;;;;;;5022429;28;20136;-87
2023/03/25 01:23:31;;;;;;;0.00;0.00;;;9.40;98.10;;;;;;5055432;28;20086;-87
2023/03/25 01:25:57;;;;;;;0.00;0.00;;;9.50;98.50;;;;;;5038589;28;20503;-87
2023/03/25 01:28:22;;;;;;;0.05;0.05;;;9.50;98.80;;;;;;5055354;28;20116;-87
2023/03/25 01:30:50;;;;;;;0.00;0.00;;;9.40;98.60;;;;;;5055459;28;20118;-87
2023/03/25 01:33:16;;;;;;;6.07;0.00;;;9.40;98.30;;;;;;5038830;28;20043;-87
2023/03/25 01:35:42;;;;;;;0.00;0.00;;;9.40;98.30;;;;;;5023295;28;20049;-88
2023/03/25 01:38:08;;;;;;;3.08;1.10;;;9.40;97.60;;;;;;5055614;28;20461;-88
2023/03/25 01:40:34;;;;;;;0.65;0.30;;;9.40;97.80;;;;;;5038856;28;20048;-87
2023/03/25 01:42:59;;;;;;;0.10;0.10;;;9.40;98.20;;;;;;5022408;28;20101;-87
2023/03/25 01:45:32;;;;;;;0.00;0.00;;;9.40;97.90;;;;;;5021482;28;20386;-88
2023/03/25 01:48:09;;;;;;;0.10;0.10;;;9.40;98.10;;;;;;5054709;28;20072;-88
2023/03/25 01:50:37;;;;;;;0.00;0.00;;;9.40;98.50;;;;;;5055043;28;20056;-88
2023/03/25 01:53:05;;;;;;;0.00;0.00;;;9.40;98.90;;;;;;5054905;28;20053;-87
2023/03/25 01:55:33;;;;;;;0.05;0.05;;;9.30;98.60;;;;;;5055015;28;20044;-88
2023/03/25 01:58:03;;;;;;;0.00;0.00;;;9.30;98.80;;;;;;5055689;28;20385;-87
2023/03/25 02:00:31;;;;;;;0.00;0.00;;;9.30;98.40;;;;;;5054949;28;20071;-88
2023/03/25 02:02:58;;;;;;;1.63;0.20;;;9.30;98.50;;;;;;5021974;28;20051;-88
2023/03/25 02:06:15;;;;;;;0.00;0.00;;;9.20;98.30;;;;;;5054483;28;20048;-88
2023/03/25 02:08:41;;;;;;;0.00;0.00;;;9.20;98.50;;;;;;5017648;28;20170;-88
2023/03/25 02:11:08;;;;;;;0.00;0.00;;;9.20;99.80;;;;;;5016559;28;20052;-88
2023/03/25 02:13:37;;;;;;;0.28;0.28;;;9.10;99.90;;;;;;5033068;28;20134;-87
2023/03/25 02:16:38;;;;;;;0.00;0.00;;;9.10;99.90;;;;;;5054819;28;20057;-88
2023/03/25 02:19:39;;;;;;;0.00;0.00;;;9.00;99.90;;;;;;5031660;28;20049;-88
2023/03/25 02:22:20;;;;;;;2.28;0.55;;;8.90;99.90;;;;;;5037254;28;20135;-87
2023/03/25 02:25:08;;;;;;;0.00;0.00;;;8.90;99.90;;;;;;5053990;28;20045;-88
2023/03/25 02:28:02;;;;;;;0.00;0.00;;;8.80;99.90;;;;;;5054767;28;20084;-87
2023/03/25 02:30:55;;;;;;;0.00;0.00;;;8.80;99.90;;;;;;5038322;28;20056;-88
2023/03/25 02:33:59;;;;;;;0.70;0.55;;;8.80;99.90;;;;;;5054439;28;20104;-88
2023/03/25 02:36:47;;;;;;;0.13;0.13;;;8.80;99.90;;;;;;5016831;28;20614;-87
2023/03/25 02:39:42;;;;;;;0.00;0.00;;;8.80;99.90;;;;;;5007404;28;20095;-85
2023/03/25 02:42:53;;;;;;;1.88;0.00;;;8.70;99.90;;;;;;5044917;28;20194;-87
2023/03/25 02:45:26;;;;;;;0.82;0.77;;;8.70;99.90;;;;;;5016667;28;20042;-88
2023/03/25 02:47:58;;;;;;;3.50;0.80;;;8.70;99.90;;;;;;5031328;28;20096;-89
2023/03/25 02:50:51;;;;;;;0.00;0.00;;;8.70;99.90;;;;;;5054730;28;20048;-89
2023/03/25 02:53:29;;;;;;;3.10;0.98;;;8.70;99.90;;;;;;5038009;28;20147;-88
2023/03/25 02:55:59;;;;;;;0.22;0.22;;;8.70;99.90;;;;;;5053649;28;20057;-90
2023/03/25 02:58:28;;;;;;;0.25;0.25;;;8.70;99.90;;;;;;5038480;28;20056;-90
2023/03/25 03:00:58;;;;;;;0.00;0.00;;;8.60;99.90;;;;;;5055239;28;20132;-90
2023/03/25 03:03:27;;;;;;;1.30;0.00;;;8.60;99.90;;;;;;5038204;28;20132;-90
2023/03/25 03:05:57;;;;;;;5.38;0.10;;;8.60;99.90;;;;;;5037882;28;20037;-91
2023/03/25 03:08:47;;;;;;;1.45;0.73;;;8.60;99.90;;;;;;5038632;28;20044;-91
2023/03/25 03:11:16;;;;;;;0.00;0.00;;;8.40;99.90;;;;;;5038200;28;20053;-88
2023/03/25 03:14:01;;;;;;;0.00;0.00;;;8.50;99.90;;;;;;5053623;28;20045;-87
2023/03/25 03:16:42;;;;;;;2.42;0.47;;;8.60;99.90;;;;;;5054063;28;20122;-87
2023/03/25 03:19:27;;;;;;;0.00;0.00;;;8.60;99.90;;;;;;5036653;28;20548;-87
2023/03/25 03:22:02;;;;;;;0.13;0.10;;;8.60;99.90;;;;;;5053268;28;20442;-88
2023/03/25 03:25:03;;;;;;;0.00;0.00;;;8.60;99.90;;;;;;5053908;28;20045;-88
2023/03/25 03:27:46;;;;;;;0.00;0.00;;;8.60;99.90;;;;;;5019780;28;20061;-87
2023/03/25 03:30:26;;;;;;;0.28;0.28;;;8.60;99.90;;;;;;5053988;28;20049;-87
2023/03/25 03:33:15;;;;;;;0.20;0.20;;;8.60;99.90;;;;;;5040495;28;20068;-87
2023/03/25 03:35:56;;;;;;;0.00;0.00;;;8.60;99.90;;;;;;5040795;28;20064;-87
2023/03/25 03:38:25;;;;;;;0.00;0.00;;;8.70;99.90;;;;;;5040993;28;20075;-89
2023/03/25 03:41:00;;;;;;;0.80;0.65;;;8.70;99.90;;;;;;5041162;28;20040;-89
2023/03/25 03:43:35;;;;;;;1.23;0.10;;;8.70;99.90;;;;;;5041271;28;20045;-88
2023/03/25 03:46:05;;;;;;;8.90;0.77;;;8.70;99.90;;;;;;5057523;28;20059;-90
2023/03/25 03:48:39;;;;;;;0.00;0.00;;;8.70;99.90;;;;;;5041831;28;20495;-90
2023/03/25 03:51:30;;;;;;;0.60;0.10;;;8.60;99.90;;;;;;5042029;28;20056;-90
2023/03/25 03:54:05;;;;;;;0.00;0.00;;;8.60;99.90;;;;;;5041840;28;20076;-90
2023/03/25 03:56:46;;;;;;;0.00;0.00;;;8.60;99.90;;;;;;5041049;28;20476;-90
2023/03/25 03:59:33;;;;;;;0.00;0.00;;;8.60;99.90;;;;;;5058643;28;20048;-90
2023/03/25 04:02:05;;;;;;;0.00;0.00;;;8.70;99.90;;;;;;5041145;28;20099;-91
2023/03/25 04:04:38;;;;;;;0.00;0.00;;;8.60;99.90;;;;;;5041296;28;20094;-90
2023/03/25 04:07:14;;;;;;;0.00;0.00;;;8.60;99.90;;;;;;5058213;28;20461;-90
2023/03/25 04:10:13;;;;;;;0.00;0.00;;;8.60;99.90;;;;;;5041077;28;20079;-90
2023/03/25 04:12:45;;;;;;;0.10;0.10;;;8.60;99.90;;;;;;5058780;28;20045;-90
2023/03/25 04:15:11;;;;;;;0.00;0.00;;;8.60;99.90;;;;;;5057591;28;20064;-92
2023/03/25 04:17:38;;;;;;;0.00;0.00;;;8.60;99.90;;;;;;5040380;28;20084;-91
2023/03/25 04:20:10;;;;;;;0.00;0.00;;;8.50;99.90;;;;;;5041827;28;20084;-90
2023/03/25 04:22:38;;;;;;;0.00;0.00;;;8.50;99.90;;;;;;5043584;28;20140;-89
2023/03/25 04:25:12;;;;;;;0.00;0.00;;;8.50;99.90;;;;;;5056195;28;20041;-87
2023/03/25 04:27:38;;;;;;;0.00;0.00;;;8.50;99.90;;;;;;5077586;28;20059;-87
2023/03/25 04:30:07;;;;;;;0.28;0.20;;;8.50;99.90;;;;;;5045577;28;20048;-87
2023/03/25 04:32:35;;;;;;;0.13;0.13;;;8.60;99.90;;;;;;5039890;28;20044;-87
2023/03/25 04:35:02;;;;;;;4.68;0.80;;;8.50;99.90;;;;;;5056347;28;20048;-87
2023/03/25 04:37:30;;;;;;;0.00;0.00;;;8.50;99.90;;;;;;5039364;28;20040;-86
2023/03/25 04:39:58;;;;;;;0.20;0.17;;;8.50;99.90;;;;;;5039136;28;20076;-86
2023/03/25 04:42:31;;;;;;;0.00;0.00;;;8.50;99.90;;;;;;5039595;28;20045;-85
2023/03/25 04:44:58;;;;;;;10.43;0.28;;;8.50;99.90;;;;;;5038966;28;20045;-86
2023/03/25 04:47:33;;;;;;;0.00;0.00;;;8.50;99.90;;;;;;5040226;28;20098;-86
2023/03/25 04:49:59;;;;;;;0.00;0.00;;;8.50;99.90;;;;;;5055682;28;20049;-88
2023/03/25 04:52:25;;;;;;;1.65;0.22;;;8.50;99.90;;;;;;5038774;28;20400;-87
2023/03/25 04:54:50;;;;;;;0.00;0.00;;;8.50;99.90;;;;;;5022171;28;20045;-87
2023/03/25 04:57:17;;;;;;;0.00;0.00;;;8.50;99.90;;;;;;5022054;28;20045;-86
2023/03/25 04:59:45;;;;;;;0.00;0.00;;;8.50;99.90;;;;;;5056519;28;20056;-87
2023/03/25 05:02:17;;;;;;;10.70;0.90;;;8.50;99.90;;;;;;5055938;28;20045;-88
2023/03/25 05:04:46;;;;;;;0.10;0.10;;;8.50;99.90;;;;;;5038474;28;20059;-86
2023/03/25 05:07:11;;;;;;;0.30;0.30;;;8.50;99.90;;;;;;5055766;28;20095;-86
2023/03/25 05:09:37;;;;;;;0.32;0.32;;;8.40;99.90;;;;;;5054702;28;20093;-87
2023/03/25 05:12:03;;;;;;;0.70;0.68;;;8.40;99.90;;;;;;5039051;28;20468;-87
2023/03/25 05:14:29;;;;;;;0.00;0.00;;;8.40;99.90;;;;;;5038104;28;20489;-87
2023/03/25 05:16:58;;;;;;;0.00;0.00;;;8.40;99.90;;;;;;5055747;28;20373;-87
2023/03/25 05:19:26;;;;;;;0.47;0.47;;;8.40;99.90;;;;;;5038666;28;20477;-87
2023/03/25 05:21:55;;;;;;;0.05;0.00;;;8.40;99.90;;;;;;5006577;28;20083;-87
2023/03/25 05:24:20;;;;;;;0.38;0.38;;;8.40;99.90;;;;;;5038480;28;20049;-87
2023/03/25 05:27:03;;;;;;;0.22;0.22;;;8.40;99.90;;;;;;5054167;28;20041;-87
2023/03/25 05:29:32;;;;;;;0.20;0.20;;;8.50;99.90;;;;;;5055753;28;20103;-87
2023/03/25 05:31:58;;;;;;;0.10;0.05;;;8.40;99.90;;;;;;5039490;28;20080;-88
2023/03/25 05:34:24;;;;;;;0.00;0.00;;;8.50;99.90;;;;;;5055509;28;20037;-85
2023/03/25 05:36:50;;;;;;;0.00;0.00;;;8.40;99.90;;;;;;5037654;28;20523;-86
2023/03/25 05:39:16;;;;;;;0.00;0.00;;;8.40;99.90;;;;;;5021198;28;20088;-86
2023/03/25 05:41:44;;;;;;;0.00;0.00;;;8.50;99.90;;;;;;5004959;28;20056;-86
2023/03/25 05:44:13;;;;;;;0.05;0.05;;;8.50;99.90;;;;;;5039039;28;20082;-87
2023/03/25 05:46:39;;;;;;;0.00;0.00;;;8.40;99.90;;;;;;5038222;28;20052;-87
2023/03/25 05:49:05;;;;;;;0.95;0.40;;;8.50;99.90;;;;;;5056609;28;20045;-88
2023/03/25 05:51:36;;;;;;;0.00;0.00;;;8.50;99.90;;;;;;5039060;28;20041;-90
2023/03/25 05:54:10;;;;;;;0.50;0.30;;;8.50;99.90;;;;;;5055427;28;20362;-89
2023/03/25 05:56:47;;;;;;;0.20;0.17;;;8.50;99.90;;;;;;5039382;28;20045;-90
2023/03/25 05:59:13;;;;;;;1.08;0.55;;;8.50;99.90;;;;;;5055909;28;20041;-90
2023/03/25 06:01:44;;;;;;;0.00;0.00;;;8.50;99.90;;;;;;5039453;28;20469;-89
2023/03/25 06:04:15;;;;;;;0.00;0.00;;;8.50;99.90;;;;;;5054673;28;20044;-90
2023/03/25 06:06:41;;;;;;;0.00;0.00;;;8.50;99.90;;;;;;5037882;28;20048;-88
2023/03/25 06:09:07;;;;;;;0.00;0.00;;;8.50;99.90;;;;;;5038196;28;20049;-88
2023/03/25 06:11:36;;;;;;;0.00;0.00;;;8.50;99.90;;;;;;5039082;28;20068;-87
2023/03/25 06:14:04;;;;;;;0.00;0.00;;;8.50;99.90;;;;;;5038586;28;20064;-88
2023/03/25 06:16:32;;;;;;;8.50;0.45;;;8.50;99.90;;;;;;5054512;28;20049;-87
2023/03/25 06:19:01;;;;;;;0.00;0.00;;;8.40;99.90;;;;;;5054266;28;20037;-88
2023/03/25 06:21:33;;;;;;;0.00;0.00;;;8.40;99.90;;;;;;5054807;28;20143;-87
2023/03/25 06:24:00;;;;;;;0.00;0.00;;;8.40;99.90;;;;;;5054816;28;20384;-88
2023/03/25 06:26:26;;;;;;;0.00;0.00;;;8.30;99.90;;;;;;5038253;28;20041;-87
2023/03/25 06:28:53;;;;;;;20.50;0.63;;;8.30;99.90;;;;;;5037511;28;20049;-88
2023/03/25 06:31:25;;;;;;;0.30;0.20;;;8.30;99.90;;;;;;5055369;28;20053;-88
2023/03/25 06:33:52;;;;;;;0.00;0.00;;;8.30;99.90;;;;;;5054233;28;20041;-87
2023/03/25 06:36:19;;;;;;;0.00;0.00;;;8.30;99.90;;;;;;5037607;28;20045;-88
2023/03/25 06:38:49;;;;;;;0.17;0.08;;;8.30;99.90;;;;;;5054168;28;20062;-87
2023/03/25 06:41:19;;;;;;;0.00;0.00;;;8.30;99.90;;;;;;5037889;28;20056;-88
2023/03/25 06:43:45;;;;;;;0.00;0.00;;;8.30;99.90;;;;;;5038152;28;20053;-87
2023/03/25 06:46:12;;;;;;;0.00;0.00;;;8.30;99.90;;;;;;5037051;28;20143;-87
2023/03/25 06:48:37;;;;;;;0.05;0.00;;;8.30;99.90;;;;;;5036778;28;20067;-87
2023/03/25 06:51:04;;;;;;;0.00;0.00;;;8.20;99.90;;;;;;5053878;28;20041;-87
2023/03/25 06:53:30;;;;;;;4.47;0.05;;;8.30;99.90;;;;;;5036758;28;20396;-87
2023/03/25 06:55:56;;;;;;;5.00;0.32;;;8.30;99.90;;;;;;5036832;28;20052;-86
2023/03/25 06:58:22;;;;;;;0.00;0.00;;;8.50;99.90;;;;;;5053064;28;20077;-86
2023/03/25 07:00:53;;;;;;;0.00;0.00;;;8.70;99.90;;;;;;5054355;28;20114;-86
2023/03/25 07:03:19;;;;;;;0.10;0.00;;;8.90;99.90;;;;;;5036946;28;20571;-86
2023/03/25 07:05:47;;;;;;;0.00;0.00;;;9.00;99.90;;;;;;5040871;28;20049;-86
2023/03/25 07:08:13;;;;;;;0.00;0.00;;;9.30;99.90;;;;;;5040934;28;20052;-87
2023/03/25 07:10:41;;;;;;;0.70;0.47;;;9.70;97.40;;;;;;5057589;28;20447;-87
2023/03/25 07:13:08;;;;;;;2.53;0.45;;;10.20;93.80;;;;;;5057729;28;20123;-87
2023/03/25 07:15:37;;;;;;;0.10;0.10;;;10.80;94.40;;;;;;5056951;28;20126;-87
2023/03/25 07:18:03;;;;;;;0.08;0.00;;;11.30;80.70;;;;;;5024402;28;20127;-87
2023/03/25 07:20:29;;;;;;;0.00;0.00;;;11.80;66.40;;;;;;5040972;28;20507;-86
2023/03/25 07:22:55;;;;;;;0.00;0.00;;;11.80;55.90;;;;;;5040160;28;20400;-86
2023/03/25 07:25:21;;;;;;;0.00;0.00;;;11.40;51.60;;;;;;5055663;28;20052;-84
2023/03/25 07:27:47;;;;;;;0.00;0.00;;;11.00;59.80;;;;;;5056913;28;20538;-85
2023/03/25 07:30:13;;;;;;;0.00;0.00;;;10.60;73.00;;;;;;5040922;28;20101;-86
2023/03/25 07:32:38;;;;;;;0.00;0.00;;;10.40;79.80;;;;;;5023959;28;20105;-87
2023/03/25 07:35:12;;;;;;;0.00;0.00;;;10.20;86.70;;;;;;5039862;28;20045;-84
2023/03/25 07:37:38;;;;;;;0.00;0.00;;;10.00;90.50;;;;;;5039306;28;20064;-83
2023/03/25 07:40:04;;;;;;;1.25;0.57;;;10.00;91.50;;;;;;5039413;28;20048;-83
2023/03/25 07:42:31;;;;;;;0.52;0.40;;;9.80;92.60;;;;;;5055923;28;20171;-84
2023/03/25 07:44:56;;;;;;;0.00;0.00;;;9.80;95.30;;;;;;5022630;28;20056;-84
2023/03/25 07:47:22;;;;;;;0.03;0.03;;;9.60;96.50;;;;;;5056884;28;20044;-85
2023/03/25 07:49:51;;;;;;;0.45;0.32;;;9.50;96.60;;;;;;5056274;28;20048;-86
2023/03/25 07:52:17;;;;;;;0.22;0.17;;;9.50;98.80;;;;;;5024027;28;20056;-85
2023/03/25 07:54:48;;;;;;;0.10;0.10;;;9.40;99.40;;;;;;5055882;28;20045;-89
2023/03/25 07:57:13;;;;;;;0.17;0.17;;;9.40;99.20;;;;;;5039738;28;20044;-85
2023/03/25 07:59:39;;;;;;;0.00;0.00;;;9.50;99.70;;;;;;5055810;28;20052;-87
2023/03/25 08:02:05;;;;;;;0.00;0.00;;;9.50;99.40;;;;;;5055238;28;20141;-86
2023/03/25 08:04:31;;;;;;;0.17;0.10;;;9.50;99.30;;;;;;5039363;28;20060;-85
2023/03/25 08:06:57;;;;;;;0.00;0.00;;;9.40;99.50;;;;;;5039632;28;20036;-86
2023/03/25 08:09:23;;;;;;;0.10;0.10;;;9.50;99.30;;;;;;5039567;28;20105;-86
2023/03/25 08:11:50;;;;;;;0.10;0.00;;;9.50;99.80;;;;;;5039275;28;20045;-86
2023/03/25 08:14:16;;;;;;;0.93;0.60;;;9.40;98.50;;;;;;5023070;28;20096;-87
2023/03/25 08:16:45;;;;;;;0.00;0.00;;;9.40;98.30;;;;;;5055356;28;20393;-86
2023/03/25 08:19:10;;;;;;;0.00;0.00;;;9.40;97.90;;;;;;5039142;28;20044;-86
2023/03/25 08:21:36;;;;;;;0.32;0.00;;;9.50;98.90;;;;;;5022717;28;20053;-86
2023/03/25 08:24:03;;;;;;;0.00;0.00;;;9.50;98.00;;;;;;5022336;28;20496;-86
2023/03/25 08:26:30;;;;;;;0.10;0.10;;;9.60;98.10;;;;;;5055415;28;20408;-86
2023/03/25 08:28:56;;;;;;;0.00;0.00;;;9.70;98.30;;;;;;5039412;28;20075;-86
2023/03/25 08:31:23;;;;;;;0.45;0.03;;;9.90;98.10;;;;;;5055267;28;20048;-86
2023/03/25 08:33:49;;;;;;;0.52;0.50;;;10.00;97.00;;;;;;5055697;28;20114;-86
2023/03/25 08:36:18;;;;;;;1.17;0.10;;;10.10;96.30;;;;;;5057177;28;20037;-91
2023/03/25 08:38:48;;;;;;;0.10;0.10;;;10.20;95.70;;;;;;5040818;28;20465;-91
2023/03/25 08:41:35;;;;;;;;;;;;;;;;;;;;;
2023/03/25 08:44:10;;;;;;;0.52;0.20;;;10.00;95.30;;;;;;5057972;28;20063;-92
2023/03/25 08:46:40;;;;;;;0.00;0.00;;;9.90;96.80;;;;;;5039610;28;20068;-89
2023/03/25 08:49:08;;;;;;;5.20;0.93;;;9.80;97.30;;;;;;5023189;28;20053;-87
2023/03/25 08:51:35;;;;;;;0.00;0.00;;;9.80;97.70;;;;;;5056546;28;20055;-86
2023/03/25 08:54:01;;;;;;;0.52;0.40;;;9.70;99.60;;;;;;5023877;28;20045;-87
2023/03/25 08:56:28;;;;;;;0.00;0.00;;;9.70;99.80;;;;;;5055811;28;20088;-86
2023/03/25 08:58:53;;;;;;;0.65;0.65;;;9.90;99.90;;;;;;5056876;28;20098;-86
2023/03/25 09:01:20;;;;;;;0.00;0.00;;;10.00;99.90;;;;;;5041543;28;20139;-87
2023/03/25 09:03:46;;;;;;;0.00;0.00;;;10.20;99.90;;;;;;5068046;28;20060;-85
2023/03/25 09:06:12;;;;;;;0.00;0.00;;;10.50;99.90;;;;;;5054555;28;20049;-85
2023/03/25 09:08:38;;;;;;;0.47;0.20;;;10.80;97.90;;;;;;5046842;28;20136;-86
2023/03/25 09:11:04;;;;;;;0.00;0.00;;;11.00;96.10;;;;;;5022483;28;20560;-86
2023/03/25 09:13:30;;;;;;;1.15;0.75;;;11.10;94.70;;;;;;5021932;28;20490;-86
2023/03/25 09:15:57;;;;;;;0.10;0.10;;;11.00;92.80;;;;;;5038098;28;20053;-87
2023/03/25 09:18:23;;;;;;;0.10;0.00;;;10.90;92.60;;;;;;5041782;28;20072;-87
2023/03/25 09:20:50;;;;;;;0.20;0.20;;;10.70;95.00;;;;;;5061232;28;20045;-87
2023/03/25 09:23:25;;;;;;;0.10;0.10;;;10.50;96.30;;;;;;5049888;28;20124;-89
2023/03/25 09:25:51;;;;;;;0.20;0.08;;;10.40;96.60;;;;;;5048633;28;20041;-89
2023/03/25 09:28:16;;;;;;;0.13;0.13;;;10.20;98.00;;;;;;5041010;28;20559;-88
2023/03/25 09:30:45;;;;;;;0.28;0.00;;;10.30;98.20;;;;;;5024170;28;20044;-89
2023/03/25 09:33:11;;;;;;;0.05;0.05;;;10.30;98.20;;;;;;5031119;28;20072;-88
2023/03/25 09:35:39;;;;;;;0.10;0.10;;;10.50;99.90;;;;;;5059623;28;20064;-88
2023/03/25 09:38:06;;;;;;;6.03;0.10;;;10.80;99.90;;;;;;5040836;28;20053;-88
2023/03/25 09:40:33;;;;;;;0.32;0.32;;;11.00;95.30;;;;;;5057387;28;20113;-88
2023/03/25 09:43:10;;;;;;;0.00;0.00;;;11.10;95.10;;;;;;5039574;28;20056;-88
2023/03/25 09:45:48;;;;;;;0.10;0.10;;;11.30;93.30;;;;;;5039227;28;20179;-88
2023/03/25 09:48:26;;;;;;;0.00;0.00;;;11.40;93.40;;;;;;5039464;28;20472;-86
2023/03/25 09:50:52;;;;;;;1.65;0.38;;;11.30;88.70;;;;;;5054800;28;20097;-86
2023/03/25 09:53:39;;;;;;;0.00;0.00;;;11.10;89.90;;;;;;5054409;28;20060;-86
2023/03/25 09:56:10;;;;;;;0.47;0.25;;;11.00;92.70;;;;;;5055301;28;20057;-87
2023/03/25 09:58:47;;;;;;;0.15;0.15;;;10.60;90.60;;;;;;5054846;28;20123;-86
2023/03/25 10:01:31;;;;;;;1.40;0.47;;;10.40;92.60;;;;;;5038388;28;20064;-86
2023/03/25 10:04:29;;;;;;;0.52;0.45;;;10.20;96.00;;;;;;5055294;28;20070;-86
2023/03/25 10:07:01;;;;;;;0.03;0.00;;;10.20;98.80;;;;;;5054281;28;20503;-86
2023/03/25 10:09:32;;;;;;;0.00;0.00;;;10.30;99.90;;;;;;5054964;28;20040;-87
2023/03/25 10:12:42;;;;;;;0.00;0.00;;;10.60;99.90;;;;;;5038157;28;20080;-87
2023/03/25 10:15:11;;;;;;;0.10;0.10;;;10.70;98.80;;;;;;5016590;28;20053;-88
2023/03/25 10:18:01;;;;;;;1.75;0.57;;;10.60;96.70;;;;;;5029789;28;20558;-87
2023/03/25 10:21:00;;;;;;;7.97;1.38;;;10.50;97.90;;;;;;5037672;28;20400;-87
2023/03/25 10:24:05;;;;;;;0.08;0.08;;;10.50;99.80;;;;;;5054922;28;20067;-87
2023/03/25 10:26:53;;;;;;;0.00;0.00;;;10.40;98.80;;;;;;5031068;28;20404;-87
2023/03/25 10:29:24;;;;;;;0.05;0.05;;;10.40;99.30;;;;;;5037128;28;20056;-87
2023/03/25 10:31:55;;;;;;;1.15;1.05;;;10.50;99.90;;;;;;5038535;28;20056;-88
2023/03/25 10:34:37;;;;;;;0.00;0.00;;;10.50;99.00;;;;;;5055169;28;20053;-87
2023/03/25 10:37:09;;;;;;;1.15;0.50;;;10.80;99.60;;;;;;5037580;28;20143;-88
2023/03/25 10:39:37;;;;;;;0.45;0.20;;;11.00;97.60;;;;;;5054095;28;20509;-87
2023/03/25 10:42:22;;;;;;;0.43;0.43;;;11.00;95.20;;;;;;5037817;28;20051;-87
2023/03/25 10:44:47;;;;;;;0.25;0.15;;;11.10;92.90;;;;;;5053718;28;20040;-87
2023/03/25 10:47:25;;;;;;;0.35;0.28;;;11.20;93.60;;;;;;5053382;28;20056;-88
2023/03/25 10:49:53;;;;;;;0.00;0.00;;;11.20;93.00;;;;;;5054305;28;20052;-88
2023/03/25 10:52:19;;;;;;;2.22;0.93;;;11.30;90.50;;;;;;5054883;28;20473;-87
2023/03/25 10:54:49;;;;;;;0.00;0.00;;;11.40;89.20;;;;;;5037522;28;20053;-87
2023/03/25 10:57:28;;;;;;;0.00;0.00;;;11.60;90.40;;;;;;5054636;28;20425;-86
2023/03/25 11:00:17;;;;;;;0.00;0.00;;;11.80;90.80;;;;;;5053743;28;20053;-85
2023/03/25 11:02:44;;;;;;;0.15;0.15;;;12.00;90.60;;;;;;5036986;28;20041;-86
2023/03/25 11:05:14;;;;;;;0.32;0.20;;;12.30;83.80;;;;;;5053025;28;20044;-86
2023/03/25 11:07:57;;;;;;;0.30;0.00;;;12.50;77.20;;;;;;5037549;28;20500;-86
2023/03/25 11:10:36;;;;;;;0.13;0.13;;;12.90;87.60;;;;;;5054220;28;20080;-86
2023/03/25 11:13:03;;;;;;;4.47;1.00;;;13.00;65.20;;;;;;5036446;28;20053;-86
2023/03/25 11:15:37;;;;;;;3.10;0.52;;;13.10;70.10;;;;;;5004074;28;20400;-86
2023/03/25 11:18:20;;;;;;;0.00;0.00;;;13.00;65.90;;;;;;5053072;28;20110;-87
2023/03/25 11:21:01;;;;;;;0.32;0.32;;;12.90;63.40;;;;;;5036722;28;20080;-86
2023/03/25 11:23:30;;;;;;;1.02;0.50;;;12.60;70.70;;;;;;5053059;28;20370;-86
2023/03/25 11:26:04;;;;;;;0.30;0.30;;;12.30;71.40;;;;;;5036228;28;20048;-86
2023/03/25 11:28:47;;;;;;;0.05;0.00;;;12.00;73.30;;;;;;5053341;28;20098;-86
2023/03/25 11:31:16;;;;;;;0.00;0.00;;;11.70;70.50;;;;;;5036422;28;20052;-86
2023/03/25 11:33:45;;;;;;;0.00;0.00;;;11.40;74.40;;;;;;5036679;28;20061;-86
2023/03/25 11:36:20;;;;;;;0.00;0.00;;;11.30;85.40;;;;;;5035913;28;20044;-85
2023/03/25 11:38:49;;;;;;;;;;;11.30;89.60;;;;;;5037053;28;20420;-85
2023/03/25 11:41:15;;;;;;;0.22;0.22;;;11.20;91.10;;;;;;5052359;28;19927;-85
2023/03/25 11:43:41;;;;;;;0.73;0.73;;;11.20;91.10;;;;;;5054066;28;20060;-85
2023/03/25 11:46:13;;;;;;;0.00;0.00;;;11.20;91.70;;;;;;5019614;28;20041;-85
2023/03/25 11:48:41;;;;;;;1.65;0.73;;;11.20;94.80;;;;;;5053458;28;20049;-85
2023/03/25 11:51:13;;;;;;;0.03;0.03;;;11.20;90.70;;;;;;5036143;28;20056;-85
2023/03/25 11:53:48;;;;;;;0.93;0.63;;;11.40;94.20;;;;;;5056794;28;20056;-85
2023/03/25 11:56:23;;;;;;;0.00;0.00;;;11.50;92.30;;;;;;5057325;28;20049;-85
2023/03/25 11:58:50;;;;;;;6.20;0.85;;;11.60;89.00;;;;;;5040352;28;20055;-85
2023/03/25 12:01:44;;;;;;;0.15;0.10;;;11.50;81.40;;;;;;5040623;28;20045;-85
2023/03/25 12:04:16;;;;;;;1.75;0.85;;;11.40;69.30;;;;;;5056464;28;20059;-84
2023/03/25 12:07:09;;;;;;;0.77;0.68;;;11.40;73.70;;;;;;5039372;28;20489;-85
2023/03/25 12:09:35;;;;;;;0.40;0.40;;;11.30;80.60;;;;;;5039463;28;20048;-85
2023/03/25 12:12:32;;;;;;;0.28;0.13;;;11.20;87.40;;;;;;5056359;28;20049;-85
2023/03/25 12:15:14;;;;;;;0.28;0.28;;;11.20;91.10;;;;;;5055605;28;20057;-85
2023/03/25 12:18:21;;;;;;;0.10;0.10;;;11.20;86.30;;;;;;5056181;28;20041;-85
2023/03/25 12:20:58;;;;;;;0.43;0.43;;;11.30;81.50;;;;;;5047088;28;20443;-85
2023/03/25 12:23:42;;;;;;;0.00;0.00;;;11.40;79.30;;;;;;5039875;28;20477;-85
2023/03/25 12:26:11;;;;;;;0.00;0.00;;;11.50;73.60;;;;;;5056568;28;20179;-85
2023/03/25 12:29:07;;;;;;;0.47;0.45;;;11.40;79.60;;;;;;5056120;28;20369;-85
2023/03/25 12:31:41;;;;;;;0.55;0.30;;;11.50;77.50;;;;;;5039169;28;20053;-85
2023/03/25 12:34:44;;;;;;;0.00;0.00;;;11.80;79.20;;;;;;5055873;28;20107;-85
2023/03/25 12:37:29;;;;;;;0.00;0.00;;;11.90;68.70;;;;;;5026372;28;20489;-84
2023/03/25 12:40:06;;;;;;;0.00;0.00;;;11.90;61.30;;;;;;5039249;28;20059;-85
2023/03/25 12:42:38;;;;;;;1.33;0.65;;;11.90;58.20;;;;;;5039642;28;20049;-84
2023/03/25 12:45:31;;;;;;;1.20;0.57;;;11.90;62.70;;;;;;5039296;28;20055;-84
2023/03/25 12:48:12;;;;;;;0.00;0.00;;;12.00;67.50;;;;;;5039417;28;20041;-84
2023/03/25 12:50:54;;;;;;;0.10;0.10;;;12.10;40.60;;;;;;5038830;28;20366;-84
2023/03/25 12:53:55;;;;;;;0.00;0.00;;;12.20;27.30;;;;;;5055345;28;20132;-84
2023/03/25 12:56:33;;;;;;;0.00;0.00;;;12.10;22.10;;;;;;5038726;28;20131;-84
2023/03/25 12:59:07;;;;;;;0.00;0.00;;;12.10;38.80;;;;;;5055710;28;20045;-83
2023/03/25 13:01:50;;;;;;;0.15;0.15;;;12.00;29.90;;;;;;5038273;28;20052;-84
2023/03/25 13:04:19;;;;;;;0.00;0.00;;;11.90;36.20;;;;;;5055759;28;20056;-84
2023/03/25 13:07:06;;;;;;;0.10;0.10;;;11.90;48.30;;;;;;5039001;28;20045;-84
2023/03/25 13:09:52;;;;;;;0.60;0.45;;;11.80;38.60;;;;;;5055785;28;20052;-85
2023/03/25 13:12:44;;;;;;;0.43;0.25;;;11.70;59.00;;;;;;5039491;28;20048;-84
2023/03/25 13:15:21;;;;;;;0.75;0.47;;;11.50;65.60;;;;;;5054974;28;20401;-85
2023/03/25 13:18:12;;;;;;;0.00;0.00;;;11.40;71.00;;;;;;5054680;28;20115;-84
2023/03/25 13:21:07;;;;;;;0.00;0.00;;;11.40;74.30;;;;;;5038744;28;20048;-84
2023/03/25 13:23:35;;;;;;;0.17;0.17;;;11.70;80.00;;;;;;5046594;28;20139;-84
2023/03/25 13:26:10;;;;;;;0.20;0.20;;;11.90;57.20;;;;;;5055077;28;20051;-84